Main page
METAR-TAF:

METAR-TAF

Airports :

Fremont Municipal Airport

Fremont, Nebraska, United States

latitude: 41-27N, longitude: 096-31W, elevation: 1243 ft

Current weather observation

The report was made 32 minutes ago, at 07:15 UTC
Wind 6 mph from the West
Temperature 55°F
Humidity 77%
Pressure 29.86 in. Hg
Visibility: 10 miles
Clear sky

METAR: KFET 220715Z AUTO 26005KT 10SM CLR 13/09 A2986 RMK AO2 T01310087

Time: 02:47 (07:47 UTC)


TAF: missing

Weather observations and forecasts of more than 4000 airports (METAR and TAF reports).

The available stations are represented by yellow and red dots on the map.

Hover mouse over dot to see the name of the station.

Then click to see weather observations and forecasts.

To change the map : click on the green buttons with a black cross to zoom in, on the green button with a dash to zoom out, or on the green arrows for adjacent maps.


METAR-TAF: